createdAt,value
2022-08-12T00:01:04.278Z,13.60
2022-08-12T00:06:04.303Z,13.50
2022-08-12T00:10:46.340Z,13.40
2022-08-12T00:15:28.044Z,13.30
2022-08-12T00:20:09.678Z,13.20
2022-08-12T00:24:50.880Z,13.20
2022-08-12T00:29:31.799Z,13.10
2022-08-12T00:34:12.707Z,13.10
2022-08-12T00:38:53.779Z,13.00
2022-08-12T00:43:17.519Z,12.90
2022-08-12T00:47:41.219Z,12.90
2022-08-12T00:52:12.266Z,12.80
2022-08-12T00:56:37.020Z,12.80
2022-08-12T01:01:07.234Z,12.80
2022-08-12T01:05:51.830Z,12.70
2022-08-12T01:10:33.186Z,12.60
2022-08-12T01:14:57.726Z,12.60
2022-08-12T01:19:24.460Z,12.60
2022-08-12T01:24:23.056Z,12.50
2022-08-12T01:28:59.382Z,12.40
2022-08-12T01:33:25.558Z,12.30
2022-08-12T01:37:57.661Z,12.30
2022-08-12T01:42:22.638Z,12.20
2022-08-12T01:47:22.878Z,12.20
2022-08-12T01:52:21.410Z,12.10
2022-08-12T01:56:43.997Z,12.10
2022-08-12T02:01:11.824Z,12.00
2022-08-12T02:06:38.818Z,12.00
2022-08-12T02:11:29.597Z,12.00
2022-08-12T02:16:09.358Z,11.80
2022-08-12T02:20:54.240Z,11.80
2022-08-12T02:25:34.010Z,11.80
2022-08-12T02:29:56.559Z,11.70
2022-08-12T02:34:20.158Z,11.70
2022-08-12T02:38:44.037Z,11.60
2022-08-12T02:43:20.001Z,11.60
2022-08-12T02:48:00.892Z,11.60
2022-08-12T02:52:27.139Z,11.50
2022-08-12T02:56:51.012Z,11.40
2022-08-12T03:01:14.587Z,11.30
2022-08-12T03:05:49.278Z,11.30
2022-08-12T03:10:16.125Z,11.30
2022-08-12T03:14:44.257Z,11.20
2022-08-12T03:19:08.578Z,11.20
2022-08-12T03:23:31.707Z,11.10
2022-08-12T03:27:57.597Z,11.00
2022-08-12T03:32:35.787Z,11.00
2022-08-12T03:37:00.570Z,11.00
2022-08-12T03:41:38.298Z,11.00
2022-08-12T03:46:28.998Z,11.00
2022-08-12T03:51:10.357Z,11.00
2022-08-12T03:55:51.418Z,10.90
2022-08-12T04:00:23.756Z,11.00
2022-08-12T04:04:49.292Z,11.10
2022-08-12T04:09:16.970Z,11.30
2022-08-12T04:13:41.379Z,11.40
2022-08-12T04:18:06.627Z,12.10
2022-08-12T04:22:31.010Z,13.80
2022-08-12T04:26:54.371Z,15.40
2022-08-12T04:31:16.518Z,17.20
2022-08-12T04:35:38.737Z,19.10
2022-08-12T04:40:01.749Z,21.00
2022-08-12T04:44:24.383Z,22.60
2022-08-12T04:48:47.488Z,24.10
2022-08-12T04:53:13.277Z,25.10
2022-08-12T04:57:35.782Z,25.40
2022-08-12T05:01:58.002Z,25.90
2022-08-12T05:06:26.949Z,26.70
2022-08-12T05:10:49.951Z,27.60
2022-08-12T05:15:27.463Z,29.30
2022-08-12T05:19:51.902Z,30.80
2022-08-12T05:24:14.586Z,32.20
2022-08-12T05:28:37.879Z,33.30
2022-08-12T05:33:05.525Z,34.30
2022-08-12T05:37:27.726Z,34.90
2022-08-12T05:41:49.956Z,34.20
2022-08-12T05:46:12.110Z,35.20
2022-08-12T05:50:35.958Z,36.40
2022-08-12T05:54:58.717Z,37.50
2022-08-12T05:59:21.997Z,38.40
2022-08-12T06:03:45.558Z,39.40
2022-08-12T06:08:08.978Z,40.30
2022-08-12T06:12:31.364Z,40.70
2022-08-12T06:16:53.618Z,40.80
2022-08-12T06:21:21.858Z,41.20
2022-08-12T06:25:44.357Z,41.10
2022-08-12T06:30:12.741Z,40.20
2022-08-12T06:35:23.651Z,39.80
2022-08-12T06:39:24.518Z,40.70
2022-08-12T06:44:06.497Z,41.90
2022-08-12T06:48:30.597Z,41.60
2022-08-12T06:52:53.138Z,41.00
2022-08-12T06:58:01.925Z,41.30
2022-08-12T07:01:58.264Z,42.60
2022-08-12T07:06:20.897Z,44.50
2022-08-12T07:11:01.799Z,45.80
2022-08-12T07:20:53.215Z,46.30
2022-08-12T07:25:40.453Z,45.20
2022-08-12T07:30:05.519Z,43.50
2022-08-12T07:34:28.262Z,41.80
2022-08-12T07:38:51.882Z,40.10
2022-08-12T07:43:14.763Z,38.90
2022-08-12T07:47:38.283Z,37.70
2022-08-12T07:52:01.183Z,37.60
2022-08-12T07:56:23.882Z,36.70
2022-08-12T08:00:46.439Z,37.80
2022-08-12T08:05:09.462Z,37.40
2022-08-12T08:09:32.262Z,34.40
2022-08-12T08:13:54.223Z,32.40
2022-08-12T08:18:26.776Z,30.10
2022-08-12T08:22:49.682Z,27.70
2022-08-12T08:27:12.543Z,25.70
2022-08-12T08:31:39.743Z,25.50
2022-08-12T08:36:02.967Z,26.20
2022-08-12T08:40:44.002Z,27.70
2022-08-12T08:45:13.221Z,29.80
2022-08-12T08:49:37.169Z,31.00
2022-08-12T08:53:59.834Z,33.00
2022-08-12T08:58:22.262Z,35.30
2022-08-12T09:02:49.458Z,36.20
2022-08-12T09:07:43.792Z,37.30
2022-08-12T09:12:27.346Z,37.20
2022-08-12T09:16:51.082Z,39.30
2022-08-12T09:21:16.342Z,37.50
2022-08-12T09:25:44.725Z,36.80
2022-08-12T09:30:16.259Z,35.40
2022-08-12T09:34:42.166Z,36.00
2022-08-12T09:40:00.457Z,35.80
2022-08-12T09:44:38.392Z,36.00
2022-08-12T09:48:56.288Z,34.80
2022-08-12T09:53:29.395Z,35.60
2022-08-12T09:58:45.290Z,36.10
2022-08-12T10:03:05.636Z,37.30
2022-08-12T10:07:39.416Z,37.80
2022-08-12T10:12:32.744Z,38.00
2022-08-12T10:16:55.929Z,32.90
2022-08-12T10:21:24.163Z,33.50
2022-08-12T10:26:37.830Z,35.70
2022-08-12T10:31:01.253Z,33.60
2022-08-12T10:35:26.660Z,33.90
2022-08-12T10:40:08.140Z,35.10
2022-08-12T10:44:36.827Z,36.10
2022-08-12T10:49:06.356Z,33.30
2022-08-12T10:53:46.760Z,31.70
2022-08-12T10:58:14.397Z,31.10
2022-08-12T11:04:23.737Z,30.40
2022-08-12T11:08:37.766Z,30.80
2022-08-12T11:12:56.718Z,31.90
2022-08-12T11:17:43.693Z,30.80
2022-08-12T11:22:01.324Z,30.70
2022-08-12T11:26:25.483Z,29.90
2022-08-12T11:30:48.883Z,29.70
2022-08-12T11:35:16.321Z,29.30
2022-08-12T11:40:03.169Z,29.00
2022-08-12T11:44:37.156Z,27.20
2022-08-12T11:49:05.554Z,26.30
2022-08-12T11:53:57.302Z,26.20
2022-08-12T11:59:28.601Z,26.20
2022-08-12T12:02:52.733Z,26.20
2022-08-12T12:07:15.249Z,26.20
2022-08-12T12:11:49.224Z,26.40
2022-08-12T12:16:12.126Z,26.20
2022-08-12T12:20:35.429Z,26.50
2022-08-12T12:25:13.341Z,26.60
2022-08-12T12:30:19.161Z,27.10
2022-08-12T12:34:30.331Z,27.50
2022-08-12T12:38:53.277Z,27.30
2022-08-12T12:43:17.248Z,26.90
2022-08-12T12:48:13.017Z,26.20
2022-08-12T12:52:35.258Z,25.50
2022-08-12T12:56:58.527Z,25.70
2022-08-12T13:01:33.051Z,25.50
2022-08-12T13:06:00.832Z,25.20
2022-08-12T13:10:30.549Z,25.50
2022-08-12T13:14:53.543Z,25.80
2022-08-12T13:19:16.467Z,26.20
2022-08-12T13:23:50.643Z,26.40
2022-08-12T13:28:28.597Z,26.10
2022-08-12T13:32:59.015Z,25.90
2022-08-12T13:37:26.825Z,25.90
2022-08-12T13:42:13.873Z,26.00
2022-08-12T13:46:38.459Z,26.40
2022-08-12T13:51:00.794Z,26.70
2022-08-12T13:55:31.374Z,27.40
2022-08-12T13:59:55.493Z,27.40
2022-08-12T14:04:23.069Z,27.10
2022-08-12T14:08:50.112Z,26.60
2022-08-12T14:14:04.712Z,26.00
2022-08-12T14:18:09.458Z,25.60
2022-08-12T14:22:35.529Z,26.10
2022-08-12T14:27:02.078Z,26.70
2022-08-12T14:31:31.318Z,27.00
2022-08-12T14:35:54.582Z,26.20
2022-08-12T14:40:18.227Z,25.60
2022-08-12T14:44:59.135Z,25.50
2022-08-12T14:50:01.262Z,25.80
2022-08-12T14:57:00.109Z,26.20
2022-08-12T14:59:20.359Z,26.00
2022-08-12T15:03:56.874Z,25.70
2022-08-12T15:08:29.431Z,25.70
2022-08-12T15:12:52.031Z,25.90
2022-08-12T15:17:37.415Z,26.10
2022-08-12T15:22:39.278Z,26.50
2022-08-12T15:26:42.651Z,26.80
2022-08-12T15:31:21.732Z,26.80
2022-08-12T15:35:53.685Z,26.60
2022-08-12T15:40:30.161Z,26.20
2022-08-12T15:44:52.608Z,25.90
2022-08-12T15:49:17.530Z,25.60
2022-08-12T15:53:58.229Z,25.60
2022-08-12T15:58:21.954Z,25.90
2022-08-12T16:02:50.586Z,26.10
2022-08-12T16:07:13.646Z,26.00
2022-08-12T16:11:43.292Z,26.20
2022-08-12T16:16:12.463Z,26.30
2022-08-12T16:20:47.230Z,26.20
2022-08-12T16:25:10.387Z,26.00
2022-08-12T16:29:53.021Z,25.80
2022-08-12T16:34:25.692Z,25.80
2022-08-12T16:39:02.846Z,25.70
2022-08-12T16:43:27.429Z,25.70
2022-08-12T16:47:58.169Z,25.70
2022-08-12T16:52:22.069Z,25.70
2022-08-12T16:56:55.049Z,25.50
2022-08-12T17:01:20.558Z,25.40
2022-08-12T17:05:43.866Z,25.30
2022-08-12T17:10:12.010Z,25.10
2022-08-12T17:14:37.647Z,24.90
2022-08-12T17:19:09.297Z,24.70
2022-08-12T17:23:48.457Z,24.60
2022-08-12T17:28:16.776Z,24.50
2022-08-12T17:32:40.688Z,24.30
2022-08-12T17:37:05.532Z,24.30
2022-08-12T17:41:56.419Z,24.30
2022-08-12T17:46:23.625Z,24.20
2022-08-12T17:50:49.727Z,24.10
2022-08-12T17:55:21.875Z,24.00
2022-08-12T17:59:58.384Z,23.90
2022-08-12T18:04:22.976Z,23.90
2022-08-12T18:08:59.067Z,23.70
2022-08-12T18:13:40.177Z,23.60
2022-08-12T18:18:06.104Z,23.50
2022-08-12T18:22:39.319Z,23.30
2022-08-12T18:27:43.175Z,23.10
2022-08-12T18:31:59.782Z,23.00
2022-08-12T18:36:28.259Z,22.70
2022-08-12T18:41:10.414Z,22.50
2022-08-12T18:45:47.145Z,22.30
2022-08-12T18:50:18.544Z,22.10
2022-08-12T18:54:54.089Z,21.90
2022-08-12T19:00:01.361Z,21.70
2022-08-12T19:04:09.203Z,21.50
2022-08-12T19:08:32.404Z,21.20
2022-08-12T19:13:24.008Z,21.00
2022-08-12T19:17:47.515Z,20.80
2022-08-12T19:22:28.918Z,20.60
2022-08-12T19:26:57.433Z,20.50
2022-08-12T19:31:56.252Z,20.50
2022-08-12T19:36:25.503Z,20.20
2022-08-12T19:40:48.795Z,19.90
2022-08-12T19:45:12.157Z,19.60
2022-08-12T19:49:37.937Z,19.20
2022-08-12T19:54:01.255Z,18.90
2022-08-12T19:58:25.683Z,18.80
2022-08-12T20:02:49.612Z,18.60
2022-08-12T20:07:23.746Z,18.40
2022-08-12T20:12:14.177Z,18.20
2022-08-12T20:16:54.466Z,18.10
2022-08-12T20:21:24.293Z,18.00
2022-08-12T20:25:52.990Z,18.00
2022-08-12T20:30:53.183Z,17.80
2022-08-12T20:35:10.043Z,17.70
2022-08-12T20:39:53.275Z,17.60
2022-08-12T20:44:18.562Z,17.40
2022-08-12T20:48:44.545Z,17.30
2022-08-12T20:53:07.714Z,17.20
2022-08-12T20:57:38.302Z,17.20
2022-08-12T21:02:24.317Z,17.10
2022-08-12T21:07:04.625Z,17.10
2022-08-12T21:11:32.761Z,17.10
2022-08-12T21:16:00.123Z,17.00
2022-08-12T21:20:23.280Z,17.00
2022-08-12T21:24:46.704Z,16.90
2022-08-12T21:29:12.810Z,16.90
2022-08-12T21:33:58.575Z,16.90
2022-08-12T21:38:21.362Z,16.80
2022-08-12T21:42:47.561Z,16.60
2022-08-12T21:47:22.350Z,16.40
2022-08-12T21:51:49.359Z,16.20
2022-08-12T21:56:34.212Z,16.10
2022-08-12T22:00:57.465Z,16.00
2022-08-12T22:05:39.621Z,16.00
2022-08-12T22:10:12.245Z,15.90
2022-08-12T22:14:34.685Z,15.90
2022-08-12T22:18:59.926Z,15.70
2022-08-12T22:23:51.290Z,15.70
2022-08-12T22:28:27.345Z,15.60
2022-08-12T22:33:04.386Z,15.50
2022-08-12T22:37:30.546Z,15.40
2022-08-12T22:42:11.866Z,15.30
2022-08-12T22:46:53.987Z,15.30
2022-08-12T22:51:22.198Z,15.20
2022-08-12T22:56:05.634Z,15.10
2022-08-12T23:00:29.017Z,15.00
2022-08-12T23:04:51.546Z,14.80
2022-08-12T23:09:18.085Z,14.70
2022-08-12T23:14:03.499Z,14.80
2022-08-12T23:18:33.405Z,15.10
2022-08-12T23:23:03.147Z,15.10
2022-08-12T23:27:51.381Z,15.00
2022-08-12T23:32:36.084Z,14.80
2022-08-12T23:36:59.925Z,14.70
2022-08-12T23:41:25.986Z,14.60
2022-08-12T23:46:00.890Z,14.50
2022-08-12T23:50:26.291Z,14.40
2022-08-12T23:54:58.465Z,14.30
2022-08-12T23:59:22.892Z,14.20
